sensor_id;sensor_type;location;lat;lon;timestamp;P1;durP1;ratioP1;P2;durP2;ratioP2
51224;SDS011;37298;42.688;23.312;2024-01-15T00:01:22;132.90;;;62.17;;
51224;SDS011;37298;42.688;23.312;2024-01-15T00:03:48;122.07;;;56.08;;
51224;SDS011;37298;42.688;23.312;2024-01-15T00:06:14;123.65;;;60.53;;
51224;SDS011;37298;42.688;23.312;2024-01-15T00:08:41;132.55;;;58.92;;
51224;SDS011;37298;42.688;23.312;2024-01-15T00:11:08;132.63;;;61.85;;
51224;SDS011;37298;42.688;23.312;2024-01-15T00:13:34;151.48;;;64.05;;
51224;SDS011;37298;42.688;23.312;2024-01-15T00:16:00;121.07;;;60.65;;
51224;SDS011;37298;42.688;23.312;2024-01-15T00:18:26;138.02;;;62.90;;
51224;SDS011;37298;42.688;23.312;2024-01-15T00:20:53;122.97;;;56.50;;
51224;SDS011;37298;42.688;23.312;2024-01-15T00:23:19;123.70;;;58.53;;
51224;SDS011;37298;42.688;23.312;2024-01-15T00:25:45;107.45;;;53.70;;
51224;SDS011;37298;42.688;23.312;2024-01-15T00:28:12;116.28;;;52.58;;
51224;SDS011;37298;42.688;23.312;2024-01-15T00:30:38;127.13;;;58.97;;
51224;SDS011;37298;42.688;23.312;2024-01-15T00:33:05;142.45;;;65.15;;
51224;SDS011;37298;42.688;23.312;2024-01-15T00:35:32;133.18;;;61.63;;
51224;SDS011;37298;42.688;23.312;2024-01-15T00:37:58;121.13;;;58.63;;
51224;SDS011;37298;42.688;23.312;2024-01-15T00:40:24;123.40;;;56.65;;
51224;SDS011;37298;42.688;23.312;2024-01-15T00:42:51;121.13;;;56.25;;
51224;SDS011;37298;42.688;23.312;2024-01-15T00:45:18;131.88;;;60.00;;
51224;SDS011;37298;42.688;23.312;2024-01-15T00:47:44;129.05;;;59.70;;
51224;SDS011;37298;42.688;23.312;2024-01-15T00:50:10;120.05;;;57.72;;
51224;SDS011;37298;42.688;23.312;2024-01-15T00:52:37;127.40;;;61.13;;
51224;SDS011;37298;42.688;23.312;2024-01-15T00:55:03;113.05;;;57.08;;
51224;SDS011;37298;42.688;23.312;2024-01-15T00:57:29;111.80;;;53.80;;
51224;SDS011;37298;42.688;23.312;2024-01-15T00:59:56;108.75;;;51.90;;
51224;SDS011;37298;42.688;23.312;2024-01-15T01:02:22;108.95;;;49.65;;
51224;SDS011;37298;42.688;23.312;2024-01-15T01:05:07;106.13;;;50.08;;
51224;SDS011;37298;42.688;23.312;2024-01-15T01:07:34;97.28;;;47.97;;
51224;SDS011;37298;42.688;23.312;2024-01-15T01:10:01;104.25;;;49.55;;
51224;SDS011;37298;42.688;23.312;2024-01-15T01:12:27;105.22;;;47.97;;
51224;SDS011;37298;42.688;23.312;2024-01-15T01:14:55;93.25;;;46.97;;
51224;SDS011;37298;42.688;23.312;2024-01-15T01:17:21;87.70;;;44.20;;
51224;SDS011;37298;42.688;23.312;2024-01-15T01:19:48;91.35;;;43.35;;
51224;SDS011;37298;42.688;23.312;2024-01-15T01:22:15;87.13;;;43.05;;
51224;SDS011;37298;42.688;23.312;2024-01-15T01:24:41;78.00;;;40.03;;
51224;SDS011;37298;42.688;23.312;2024-01-15T01:27:08;85.45;;;39.90;;
51224;SDS011;37298;42.688;23.312;2024-01-15T01:29:34;68.47;;;33.40;;
51224;SDS011;37298;42.688;23.312;2024-01-15T01:32:01;76.32;;;37.15;;
51224;SDS011;37298;42.688;23.312;2024-01-15T01:34:27;59.95;;;31.60;;
51224;SDS011;37298;42.688;23.312;2024-01-15T01:36:54;68.88;;;32.78;;
51224;SDS011;37298;42.688;23.312;2024-01-15T01:39:21;65.60;;;32.35;;
51224;SDS011;37298;42.688;23.312;2024-01-15T01:41:47;71.07;;;32.33;;
51224;SDS011;37298;42.688;23.312;2024-01-15T01:44:13;69.88;;;33.00;;
51224;SDS011;37298;42.688;23.312;2024-01-15T01:46:40;71.53;;;33.47;;
51224;SDS011;37298;42.688;23.312;2024-01-15T01:49:06;74.18;;;35.20;;
51224;SDS011;37298;42.688;23.312;2024-01-15T01:51:33;65.30;;;32.80;;
51224;SDS011;37298;42.688;23.312;2024-01-15T01:54:00;77.10;;;34.80;;
51224;SDS011;37298;42.688;23.312;2024-01-15T01:56:27;71.60;;;36.17;;
51224;SDS011;37298;42.688;23.312;2024-01-15T01:58:53;71.25;;;36.15;;
51224;SDS011;37298;42.688;23.312;2024-01-15T02:01:20;69.15;;;34.17;;
51224;SDS011;37298;42.688;23.312;2024-01-15T02:03:46;82.88;;;37.47;;
51224;SDS011;37298;42.688;23.312;2024-01-15T02:06:12;111.28;;;51.78;;
51224;SDS011;37298;42.688;23.312;2024-01-15T02:08:39;113.88;;;50.83;;
51224;SDS011;37298;42.688;23.312;2024-01-15T02:11:06;105.80;;;51.92;;
51224;SDS011;37298;42.688;23.312;2024-01-15T02:13:33;117.80;;;52.13;;
51224;SDS011;37298;42.688;23.312;2024-01-15T02:15:59;111.28;;;56.33;;
51224;SDS011;37298;42.688;23.312;2024-01-15T02:18:25;122.00;;;57.08;;
51224;SDS011;37298;42.688;23.312;2024-01-15T02:20:51;109.00;;;56.05;;
51224;SDS011;37298;42.688;23.312;2024-01-15T02:23:18;124.43;;;59.45;;
51224;SDS011;37298;42.688;23.312;2024-01-15T02:25:45;123.45;;;57.63;;
51224;SDS011;37298;42.688;23.312;2024-01-15T02:28:12;121.75;;;56.78;;
51224;SDS011;37298;42.688;23.312;2024-01-15T02:30:38;120.57;;;58.03;;
51224;SDS011;37298;42.688;23.312;2024-01-15T02:33:05;120.20;;;57.00;;
51224;SDS011;37298;42.688;23.312;2024-01-15T02:35:31;126.10;;;59.05;;
51224;SDS011;37298;42.688;23.312;2024-01-15T02:37:58;116.97;;;57.80;;
51224;SDS011;37298;42.688;23.312;2024-01-15T02:40:25;123.35;;;53.97;;
51224;SDS011;37298;42.688;23.312;2024-01-15T02:42:52;117.22;;;52.03;;
51224;SDS011;37298;42.688;23.312;2024-01-15T02:45:18;92.80;;;46.97;;
51224;SDS011;37298;42.688;23.312;2024-01-15T02:47:45;91.90;;;46.53;;
51224;SDS011;37298;42.688;23.312;2024-01-15T02:50:11;100.90;;;44.85;;
51224;SDS011;37298;42.688;23.312;2024-01-15T02:52:37;89.85;;;43.50;;
51224;SDS011;37298;42.688;23.312;2024-01-15T02:55:03;84.55;;;41.13;;
51224;SDS011;37298;42.688;23.312;2024-01-15T02:57:30;97.30;;;46.10;;
51224;SDS011;37298;42.688;23.312;2024-01-15T02:59:57;95.10;;;46.67;;
51224;SDS011;37298;42.688;23.312;2024-01-15T03:02:23;92.95;;;46.17;;
51224;SDS011;37298;42.688;23.312;2024-01-15T03:04:49;108.93;;;46.72;;
51224;SDS011;37298;42.688;23.312;2024-01-15T03:07:16;98.60;;;46.58;;
51224;SDS011;37298;42.688;23.312;2024-01-15T03:09:42;116.68;;;53.03;;
51224;SDS011;37298;42.688;23.312;2024-01-15T03:12:08;132.05;;;60.05;;
51224;SDS011;37298;42.688;23.312;2024-01-15T03:14:35;130.73;;;62.45;;
51224;SDS011;37298;42.688;23.312;2024-01-15T03:17:02;131.90;;;59.53;;
51224;SDS011;37298;42.688;23.312;2024-01-15T03:19:28;131.57;;;63.10;;
51224;SDS011;37298;42.688;23.312;2024-01-15T03:21:56;128.50;;;60.33;;
51224;SDS011;37298;42.688;23.312;2024-01-15T03:24:22;122.93;;;61.38;;
51224;SDS011;37298;42.688;23.312;2024-01-15T03:26:48;130.95;;;61.95;;
51224;SDS011;37298;42.688;23.312;2024-01-15T03:29:15;125.35;;;58.00;;
51224;SDS011;37298;42.688;23.312;2024-01-15T03:31:41;122.53;;;56.40;;
51224;SDS011;37298;42.688;23.312;2024-01-15T03:34:08;118.57;;;56.95;;
51224;SDS011;37298;42.688;23.312;2024-01-15T03:36:34;133.07;;;58.58;;
51224;SDS011;37298;42.688;23.312;2024-01-15T03:39:00;115.97;;;57.60;;
51224;SDS011;37298;42.688;23.312;2024-01-15T03:41:27;120.90;;;57.80;;
51224;SDS011;37298;42.688;23.312;2024-01-15T03:43:53;118.95;;;55.97;;
51224;SDS011;37298;42.688;23.312;2024-01-15T03:46:20;133.35;;;57.58;;
51224;SDS011;37298;42.688;23.312;2024-01-15T03:48:47;129.48;;;55.45;;
51224;SDS011;37298;42.688;23.312;2024-01-15T03:51:13;128.93;;;55.15;;
51224;SDS011;37298;42.688;23.312;2024-01-15T03:53:41;107.15;;;52.35;;
51224;SDS011;37298;42.688;23.312;2024-01-15T03:56:08;122.28;;;53.97;;
51224;SDS011;37298;42.688;23.312;2024-01-15T03:58:34;118.55;;;52.38;;
51224;SDS011;37298;42.688;23.312;2024-01-15T04:01:00;114.15;;;55.47;;
51224;SDS011;37298;42.688;23.312;2024-01-15T04:03:26;114.40;;;51.20;;
51224;SDS011;37298;42.688;23.312;2024-01-15T04:05:53;109.82;;;51.42;;
51224;SDS011;37298;42.688;23.312;2024-01-15T04:08:20;107.50;;;47.80;;
51224;SDS011;37298;42.688;23.312;2024-01-15T04:10:46;102.78;;;46.25;;
51224;SDS011;37298;42.688;23.312;2024-01-15T04:13:12;105.40;;;43.92;;
51224;SDS011;37298;42.688;23.312;2024-01-15T04:15:39;104.68;;;49.97;;
51224;SDS011;37298;42.688;23.312;2024-01-15T04:18:06;102.18;;;49.33;;
51224;SDS011;37298;42.688;23.312;2024-01-15T04:20:32;96.93;;;43.42;;
51224;SDS011;37298;42.688;23.312;2024-01-15T04:22:59;99.28;;;43.97;;
51224;SDS011;37298;42.688;23.312;2024-01-15T04:25:25;88.93;;;44.35;;
51224;SDS011;37298;42.688;23.312;2024-01-15T04:27:51;111.35;;;50.20;;
51224;SDS011;37298;42.688;23.312;2024-01-15T04:30:18;109.78;;;52.67;;
51224;SDS011;37298;42.688;23.312;2024-01-15T04:32:44;116.15;;;53.88;;
51224;SDS011;37298;42.688;23.312;2024-01-15T04:35:11;111.72;;;50.60;;
51224;SDS011;37298;42.688;23.312;2024-01-15T04:37:38;112.18;;;50.03;;
51224;SDS011;37298;42.688;23.312;2024-01-15T04:40:05;114.18;;;52.65;;
51224;SDS011;37298;42.688;23.312;2024-01-15T04:42:32;117.40;;;53.47;;
51224;SDS011;37298;42.688;23.312;2024-01-15T04:44:58;116.05;;;52.25;;
51224;SDS011;37298;42.688;23.312;2024-01-15T04:47:25;118.95;;;52.42;;
51224;SDS011;37298;42.688;23.312;2024-01-15T04:49:51;112.07;;;50.03;;
51224;SDS011;37298;42.688;23.312;2024-01-15T04:52:17;117.28;;;52.58;;
51224;SDS011;37298;42.688;23.312;2024-01-15T04:54:44;114.15;;;52.45;;
51224;SDS011;37298;42.688;23.312;2024-01-15T04:57:11;121.93;;;56.65;;
51224;SDS011;37298;42.688;23.312;2024-01-15T04:59:37;117.88;;;55.80;;
51224;SDS011;37298;42.688;23.312;2024-01-15T05:02:03;118.65;;;55.83;;
51224;SDS011;37298;42.688;23.312;2024-01-15T05:04:30;114.43;;;54.30;;
51224;SDS011;37298;42.688;23.312;2024-01-15T05:06:56;110.38;;;53.33;;
51224;SDS011;37298;42.688;23.312;2024-01-15T05:09:22;118.07;;;55.67;;
51224;SDS011;37298;42.688;23.312;2024-01-15T05:11:49;128.63;;;58.92;;
51224;SDS011;37298;42.688;23.312;2024-01-15T05:14:16;109.28;;;54.40;;
51224;SDS011;37298;42.688;23.312;2024-01-15T05:16:46;92.77;;;43.27;;
51224;SDS011;37298;42.688;23.312;2024-01-15T05:19:13;118.28;;;56.55;;
51224;SDS011;37298;42.688;23.312;2024-01-15T05:21:39;114.93;;;53.17;;
51224;SDS011;37298;42.688;23.312;2024-01-15T05:24:05;96.20;;;45.55;;
51224;SDS011;37298;42.688;23.312;2024-01-15T05:26:31;110.35;;;46.33;;
51224;SDS011;37298;42.688;23.312;2024-01-15T05:28:57;109.32;;;49.03;;
51224;SDS011;37298;42.688;23.312;2024-01-15T05:31:24;99.35;;;46.70;;
51224;SDS011;37298;42.688;23.312;2024-01-15T05:33:51;104.00;;;49.55;;
51224;SDS011;37298;42.688;23.312;2024-01-15T05:36:17;110.40;;;52.50;;
51224;SDS011;37298;42.688;23.312;2024-01-15T05:38:44;123.30;;;54.90;;
51224;SDS011;37298;42.688;23.312;2024-01-15T05:41:10;119.32;;;55.60;;
51224;SDS011;37298;42.688;23.312;2024-01-15T05:43:36;122.60;;;55.75;;
51224;SDS011;37298;42.688;23.312;2024-01-15T05:46:03;98.75;;;48.40;;
51224;SDS011;37298;42.688;23.312;2024-01-15T05:48:30;110.20;;;53.30;;
51224;SDS011;37298;42.688;23.312;2024-01-15T05:50:57;89.93;;;44.33;;
51224;SDS011;37298;42.688;23.312;2024-01-15T05:53:23;117.22;;;54.72;;
51224;SDS011;37298;42.688;23.312;2024-01-15T05:55:49;119.47;;;56.45;;
51224;SDS011;37298;42.688;23.312;2024-01-15T05:58:15;117.43;;;55.60;;
51224;SDS011;37298;42.688;23.312;2024-01-15T06:00:42;121.28;;;57.15;;
51224;SDS011;37298;42.688;23.312;2024-01-15T06:03:08;112.38;;;55.33;;
51224;SDS011;37298;42.688;23.312;2024-01-15T06:05:35;123.28;;;59.70;;
51224;SDS011;37298;42.688;23.312;2024-01-15T06:08:01;122.72;;;58.80;;
51224;SDS011;37298;42.688;23.312;2024-01-15T06:10:27;83.00;;;41.45;;
51224;SDS011;37298;42.688;23.312;2024-01-15T06:12:54;118.95;;;58.63;;
51224;SDS011;37298;42.688;23.312;2024-01-15T06:15:20;118.30;;;48.50;;
51224;SDS011;37298;42.688;23.312;2024-01-15T06:17:47;125.43;;;59.38;;
51224;SDS011;37298;42.688;23.312;2024-01-15T06:20:13;121.90;;;58.38;;
51224;SDS011;37298;42.688;23.312;2024-01-15T06:22:41;119.70;;;60.40;;
51224;SDS011;37298;42.688;23.312;2024-01-15T06:27:52;117.22;;;57.83;;
51224;SDS011;37298;42.688;23.312;2024-01-15T06:30:18;125.18;;;60.78;;
51224;SDS011;37298;42.688;23.312;2024-01-15T06:32:44;126.00;;;55.55;;
51224;SDS011;37298;42.688;23.312;2024-01-15T06:35:10;109.32;;;56.53;;
51224;SDS011;37298;42.688;23.312;2024-01-15T06:37:37;127.55;;;60.38;;
51224;SDS011;37298;42.688;23.312;2024-01-15T06:40:04;122.13;;;55.05;;
51224;SDS011;37298;42.688;23.312;2024-01-15T06:42:31;124.38;;;58.55;;
51224;SDS011;37298;42.688;23.312;2024-01-15T06:44:58;116.32;;;57.88;;
51224;SDS011;37298;42.688;23.312;2024-01-15T06:47:25;113.82;;;54.53;;
51224;SDS011;37298;42.688;23.312;2024-01-15T06:49:51;113.10;;;55.65;;
51224;SDS011;37298;42.688;23.312;2024-01-15T06:52:17;96.38;;;48.03;;
51224;SDS011;37298;42.688;23.312;2024-01-15T06:54:44;97.00;;;47.75;;
51224;SDS011;37298;42.688;23.312;2024-01-15T06:57:12;111.35;;;51.63;;
51224;SDS011;37298;42.688;23.312;2024-01-15T06:59:38;100.90;;;52.40;;
51224;SDS011;37298;42.688;23.312;2024-01-15T07:02:04;105.72;;;51.88;;
51224;SDS011;37298;42.688;23.312;2024-01-15T07:04:31;112.97;;;54.45;;
51224;SDS011;37298;42.688;23.312;2024-01-15T07:06:57;106.53;;;54.08;;
51224;SDS011;37298;42.688;23.312;2024-01-15T07:09:24;107.82;;;53.60;;
51224;SDS011;37298;42.688;23.312;2024-01-15T07:11:50;105.32;;;52.30;;
51224;SDS011;37298;42.688;23.312;2024-01-15T07:14:17;104.72;;;50.38;;
51224;SDS011;37298;42.688;23.312;2024-01-15T07:16:43;108.82;;;52.58;;
51224;SDS011;37298;42.688;23.312;2024-01-15T07:19:10;112.95;;;53.88;;
51224;SDS011;37298;42.688;23.312;2024-01-15T07:21:37;112.80;;;53.38;;
51224;SDS011;37298;42.688;23.312;2024-01-15T07:24:05;109.30;;;54.88;;
51224;SDS011;37298;42.688;23.312;2024-01-15T07:26:31;107.40;;;51.40;;
51224;SDS011;37298;42.688;23.312;2024-01-15T07:28:58;104.78;;;54.92;;
51224;SDS011;37298;42.688;23.312;2024-01-15T07:31:25;110.97;;;52.40;;
51224;SDS011;37298;42.688;23.312;2024-01-15T07:33:51;109.05;;;53.45;;
51224;SDS011;37298;42.688;23.312;2024-01-15T07:36:17;107.72;;;53.15;;
51224;SDS011;37298;42.688;23.312;2024-01-15T07:38:44;103.30;;;52.58;;
51224;SDS011;37298;42.688;23.312;2024-01-15T07:41:10;94.82;;;50.05;;
51224;SDS011;37298;42.688;23.312;2024-01-15T07:43:37;117.88;;;54.25;;
51224;SDS011;37298;42.688;23.312;2024-01-15T07:46:04;130.85;;;63.63;;
51224;SDS011;37298;42.688;23.312;2024-01-15T07:48:31;129.32;;;62.08;;
51224;SDS011;37298;42.688;23.312;2024-01-15T07:50:57;119.68;;;57.10;;
51224;SDS011;37298;42.688;23.312;2024-01-15T07:53:23;132.20;;;63.15;;
51224;SDS011;37298;42.688;23.312;2024-01-15T07:55:50;116.65;;;57.28;;
51224;SDS011;37298;42.688;23.312;2024-01-15T07:58:16;104.15;;;53.88;;
51224;SDS011;37298;42.688;23.312;2024-01-15T08:00:43;115.25;;;58.28;;
51224;SDS011;37298;42.688;23.312;2024-01-15T08:03:10;101.55;;;47.50;;
51224;SDS011;37298;42.688;23.312;2024-01-15T08:05:37;99.13;;;51.75;;
51224;SDS011;37298;42.688;23.312;2024-01-15T08:08:04;106.40;;;51.65;;
51224;SDS011;37298;42.688;23.312;2024-01-15T08:10:30;97.97;;;46.55;;
51224;SDS011;37298;42.688;23.312;2024-01-15T08:12:56;95.47;;;45.28;;
51224;SDS011;37298;42.688;23.312;2024-01-15T08:15:23;73.97;;;39.83;;
51224;SDS011;37298;42.688;23.312;2024-01-15T08:17:49;79.53;;;39.58;;
51224;SDS011;37298;42.688;23.312;2024-01-15T08:20:16;73.95;;;35.40;;
51224;SDS011;37298;42.688;23.312;2024-01-15T08:22:43;70.72;;;35.38;;
51224;SDS011;37298;42.688;23.312;2024-01-15T08:25:09;64.43;;;34.35;;
51224;SDS011;37298;42.688;23.312;2024-01-15T08:27:36;61.97;;;31.85;;
51224;SDS011;37298;42.688;23.312;2024-01-15T08:30:04;70.32;;;31.75;;
51224;SDS011;37298;42.688;23.312;2024-01-15T08:32:30;61.80;;;29.92;;
51224;SDS011;37298;42.688;23.312;2024-01-15T08:34:57;64.35;;;31.92;;
51224;SDS011;37298;42.688;23.312;2024-01-15T08:37:23;64.43;;;28.88;;
51224;SDS011;37298;42.688;23.312;2024-01-15T08:39:50;65.47;;;30.88;;
51224;SDS011;37298;42.688;23.312;2024-01-15T08:42:17;56.85;;;31.92;;
51224;SDS011;37298;42.688;23.312;2024-01-15T08:44:43;68.15;;;34.35;;
51224;SDS011;37298;42.688;23.312;2024-01-15T08:47:09;65.60;;;32.88;;
51224;SDS011;37298;42.688;23.312;2024-01-15T08:49:35;64.13;;;32.63;;
51224;SDS011;37298;42.688;23.312;2024-01-15T08:52:02;67.50;;;33.67;;
51224;SDS011;37298;42.688;23.312;2024-01-15T08:54:28;72.95;;;35.22;;
51224;SDS011;37298;42.688;23.312;2024-01-15T08:56:55;69.63;;;34.20;;
51224;SDS011;37298;42.688;23.312;2024-01-15T08:59:21;83.45;;;40.60;;
51224;SDS011;37298;42.688;23.312;2024-01-15T09:01:51;58.22;;;30.80;;
51224;SDS011;37298;42.688;23.312;2024-01-15T09:04:18;63.25;;;30.73;;
51224;SDS011;37298;42.688;23.312;2024-01-15T09:06:45;63.78;;;30.67;;
51224;SDS011;37298;42.688;23.312;2024-01-15T09:09:12;69.30;;;33.35;;
51224;SDS011;37298;42.688;23.312;2024-01-15T09:11:38;63.33;;;33.30;;
51224;SDS011;37298;42.688;23.312;2024-01-15T09:14:05;64.40;;;33.53;;
51224;SDS011;37298;42.688;23.312;2024-01-15T09:16:32;69.22;;;33.55;;
51224;SDS011;37298;42.688;23.312;2024-01-15T09:18:58;70.72;;;33.05;;
51224;SDS011;37298;42.688;23.312;2024-01-15T09:21:25;63.65;;;31.35;;
51224;SDS011;37298;42.688;23.312;2024-01-15T09:23:51;70.13;;;33.80;;
51224;SDS011;37298;42.688;23.312;2024-01-15T09:26:17;98.13;;;50.17;;
51224;SDS011;37298;42.688;23.312;2024-01-15T09:28:44;117.68;;;55.13;;
51224;SDS011;37298;42.688;23.312;2024-01-15T09:31:11;104.00;;;55.55;;
51224;SDS011;37298;42.688;23.312;2024-01-15T09:33:39;112.68;;;56.33;;
51224;SDS011;37298;42.688;23.312;2024-01-15T09:36:05;104.80;;;52.80;;
51224;SDS011;37298;42.688;23.312;2024-01-15T09:38:33;112.70;;;57.40;;
51224;SDS011;37298;42.688;23.312;2024-01-15T09:40:59;133.43;;;66.88;;
51224;SDS011;37298;42.688;23.312;2024-01-15T09:43:25;123.45;;;63.72;;
51224;SDS011;37298;42.688;23.312;2024-01-15T09:45:52;122.50;;;64.25;;
51224;SDS011;37298;42.688;23.312;2024-01-15T09:48:20;128.07;;;65.25;;
51224;SDS011;37298;42.688;23.312;2024-01-15T09:50:46;127.68;;;64.43;;
51224;SDS011;37298;42.688;23.312;2024-01-15T09:53:13;119.50;;;63.03;;
51224;SDS011;37298;42.688;23.312;2024-01-15T09:55:41;120.55;;;62.55;;
51224;SDS011;37298;42.688;23.312;2024-01-15T09:58:07;134.20;;;65.60;;
51224;SDS011;37298;42.688;23.312;2024-01-15T10:00:34;140.18;;;67.95;;
51224;SDS011;37298;42.688;23.312;2024-01-15T10:03:02;120.72;;;65.03;;
51224;SDS011;37298;42.688;23.312;2024-01-15T10:05:30;113.32;;;65.55;;
51224;SDS011;37298;42.688;23.312;2024-01-15T10:07:56;107.18;;;63.30;;
51224;SDS011;37298;42.688;23.312;2024-01-15T10:10:23;118.57;;;62.35;;
51224;SDS011;37298;42.688;23.312;2024-01-15T10:12:49;95.70;;;52.60;;
51224;SDS011;37298;42.688;23.312;2024-01-15T10:15:16;92.03;;;53.10;;
51224;SDS011;37298;42.688;23.312;2024-01-15T10:17:42;91.50;;;53.40;;
51224;SDS011;37298;42.688;23.312;2024-01-15T10:20:09;85.18;;;50.47;;
51224;SDS011;37298;42.688;23.312;2024-01-15T10:22:38;75.38;;;46.47;;
51224;SDS011;37298;42.688;23.312;2024-01-15T10:25:05;83.18;;;44.05;;
51224;SDS011;37298;42.688;23.312;2024-01-15T10:27:31;65.75;;;41.40;;
51224;SDS011;37298;42.688;23.312;2024-01-15T10:29:58;70.22;;;43.78;;
51224;SDS011;37298;42.688;23.312;2024-01-15T10:32:25;67.47;;;41.47;;
51224;SDS011;37298;42.688;23.312;2024-01-15T10:34:52;63.25;;;40.33;;
51224;SDS011;37298;42.688;23.312;2024-01-15T10:37:18;59.17;;;38.40;;
51224;SDS011;37298;42.688;23.312;2024-01-15T10:39:46;61.88;;;38.05;;
51224;SDS011;37298;42.688;23.312;2024-01-15T10:42:12;64.70;;;40.08;;
51224;SDS011;37298;42.688;23.312;2024-01-15T10:44:39;56.13;;;36.55;;
51224;SDS011;37298;42.688;23.312;2024-01-15T10:47:06;51.00;;;30.20;;
51224;SDS011;37298;42.688;23.312;2024-01-15T10:49:32;46.38;;;29.77;;
51224;SDS011;37298;42.688;23.312;2024-01-15T10:51:59;47.20;;;30.17;;
51224;SDS011;37298;42.688;23.312;2024-01-15T10:54:26;42.55;;;28.70;;
51224;SDS011;37298;42.688;23.312;2024-01-15T10:56:53;51.22;;;28.60;;
51224;SDS011;37298;42.688;23.312;2024-01-15T10:59:22;37.50;;;22.20;;
51224;SDS011;37298;42.688;23.312;2024-01-15T11:01:48;38.75;;;22.83;;
51224;SDS011;37298;42.688;23.312;2024-01-15T11:04:14;44.83;;;25.48;;
51224;SDS011;37298;42.688;23.312;2024-01-15T11:06:42;42.33;;;23.80;;
51224;SDS011;37298;42.688;23.312;2024-01-15T11:09:09;43.13;;;24.52;;
51224;SDS011;37298;42.688;23.312;2024-01-15T11:11:36;37.80;;;23.05;;
51224;SDS011;37298;42.688;23.312;2024-01-15T11:14:06;38.72;;;22.10;;
51224;SDS011;37298;42.688;23.312;2024-01-15T11:19:22;39.15;;;23.30;;
51224;SDS011;37298;42.688;23.312;2024-01-15T11:21:48;36.13;;;22.60;;
51224;SDS011;37298;42.688;23.312;2024-01-15T11:26:56;43.30;;;24.05;;
51224;SDS011;37298;42.688;23.312;2024-01-15T11:29:29;44.00;;;23.13;;
51224;SDS011;37298;42.688;23.312;2024-01-15T11:31:56;35.15;;;21.92;;
51224;SDS011;37298;42.688;23.312;2024-01-15T11:34:49;38.80;;;22.55;;
51224;SDS011;37298;42.688;23.312;2024-01-15T11:37:16;40.53;;;23.27;;
51224;SDS011;37298;42.688;23.312;2024-01-15T11:39:42;44.25;;;23.10;;
51224;SDS011;37298;42.688;23.312;2024-01-15T11:42:10;36.90;;;22.33;;
51224;SDS011;37298;42.688;23.312;2024-01-15T11:44:38;41.40;;;22.13;;
51224;SDS011;37298;42.688;23.312;2024-01-15T11:47:07;34.63;;;21.90;;
51224;SDS011;37298;42.688;23.312;2024-01-15T11:49:46;42.58;;;22.50;;
51224;SDS011;37298;42.688;23.312;2024-01-15T11:52:16;42.30;;;21.88;;
51224;SDS011;37298;42.688;23.312;2024-01-15T11:54:44;41.58;;;20.85;;
51224;SDS011;37298;42.688;23.312;2024-01-15T11:57:18;30.85;;;18.92;;
51224;SDS011;37298;42.688;23.312;2024-01-15T11:59:49;35.85;;;20.35;;
51224;SDS011;37298;42.688;23.312;2024-01-15T12:02:16;33.10;;;19.55;;
51224;SDS011;37298;42.688;23.312;2024-01-15T12:04:42;34.35;;;18.40;;
51224;SDS011;37298;42.688;23.312;2024-01-15T12:07:08;38.25;;;21.00;;
51224;SDS011;37298;42.688;23.312;2024-01-15T12:09:35;37.35;;;20.50;;
51224;SDS011;37298;42.688;23.312;2024-01-15T12:12:02;44.58;;;20.42;;
51224;SDS011;37298;42.688;23.312;2024-01-15T12:14:31;40.83;;;21.42;;
51224;SDS011;37298;42.688;23.312;2024-01-15T12:16:58;35.50;;;21.15;;
51224;SDS011;37298;42.688;23.312;2024-01-15T12:19:25;36.47;;;20.15;;
51224;SDS011;37298;42.688;23.312;2024-01-15T12:21:52;37.83;;;20.05;;
51224;SDS011;37298;42.688;23.312;2024-01-15T12:24:18;41.08;;;20.88;;
51224;SDS011;37298;42.688;23.312;2024-01-15T12:26:44;50.15;;;20.27;;
51224;SDS011;37298;42.688;23.312;2024-01-15T12:29:10;49.75;;;21.30;;
51224;SDS011;37298;42.688;23.312;2024-01-15T12:31:37;40.60;;;21.73;;
51224;SDS011;37298;42.688;23.312;2024-01-15T12:34:04;40.05;;;20.77;;
51224;SDS011;37298;42.688;23.312;2024-01-15T12:36:30;40.22;;;19.27;;
51224;SDS011;37298;42.688;23.312;2024-01-15T12:38:58;41.40;;;18.67;;
51224;SDS011;37298;42.688;23.312;2024-01-15T12:41:25;39.22;;;21.27;;
51224;SDS011;37298;42.688;23.312;2024-01-15T12:43:51;42.63;;;21.17;;
51224;SDS011;37298;42.688;23.312;2024-01-15T12:46:18;43.38;;;20.23;;
51224;SDS011;37298;42.688;23.312;2024-01-15T12:48:45;36.63;;;20.60;;
51224;SDS011;37298;42.688;23.312;2024-01-15T12:51:12;34.50;;;21.42;;
51224;SDS011;37298;42.688;23.312;2024-01-15T12:53:38;45.13;;;22.45;;
51224;SDS011;37298;42.688;23.312;2024-01-15T12:56:05;42.92;;;22.33;;
51224;SDS011;37298;42.688;23.312;2024-01-15T12:58:31;46.90;;;21.65;;
51224;SDS011;37298;42.688;23.312;2024-01-15T13:00:58;47.03;;;21.65;;
51224;SDS011;37298;42.688;23.312;2024-01-15T13:03:24;36.05;;;19.92;;
51224;SDS011;37298;42.688;23.312;2024-01-15T13:05:50;41.30;;;22.92;;
51224;SDS011;37298;42.688;23.312;2024-01-15T13:08:18;45.45;;;21.65;;
51224;SDS011;37298;42.688;23.312;2024-01-15T13:10:45;46.08;;;24.10;;
51224;SDS011;37298;42.688;23.312;2024-01-15T13:13:11;40.55;;;22.83;;
51224;SDS011;37298;42.688;23.312;2024-01-15T13:15:37;37.83;;;22.63;;
51224;SDS011;37298;42.688;23.312;2024-01-15T13:18:04;40.92;;;22.00;;
51224;SDS011;37298;42.688;23.312;2024-01-15T13:20:31;49.42;;;21.15;;
51224;SDS011;37298;42.688;23.312;2024-01-15T13:22:57;41.40;;;22.98;;
51224;SDS011;37298;42.688;23.312;2024-01-15T13:25:24;41.35;;;23.40;;
51224;SDS011;37298;42.688;23.312;2024-01-15T13:27:51;47.10;;;24.00;;
51224;SDS011;37298;42.688;23.312;2024-01-15T13:30:18;40.85;;;23.40;;
51224;SDS011;37298;42.688;23.312;2024-01-15T13:32:44;36.83;;;21.23;;
51224;SDS011;37298;42.688;23.312;2024-01-15T13:35:10;47.83;;;22.05;;
51224;SDS011;37298;42.688;23.312;2024-01-15T13:37:38;38.55;;;22.27;;
51224;SDS011;37298;42.688;23.312;2024-01-15T13:40:07;48.60;;;23.63;;
51224;SDS011;37298;42.688;23.312;2024-01-15T13:42:36;36.97;;;21.77;;
51224;SDS011;37298;42.688;23.312;2024-01-15T13:45:03;39.70;;;22.95;;
51224;SDS011;37298;42.688;23.312;2024-01-15T13:47:31;32.17;;;19.80;;
51224;SDS011;37298;42.688;23.312;2024-01-15T13:49:58;33.88;;;19.98;;
51224;SDS011;37298;42.688;23.312;2024-01-15T13:52:25;39.83;;;21.67;;
51224;SDS011;37298;42.688;23.312;2024-01-15T13:54:53;38.05;;;19.27;;
51224;SDS011;37298;42.688;23.312;2024-01-15T13:57:19;40.55;;;19.40;;
51224;SDS011;37298;42.688;23.312;2024-01-15T13:59:46;42.28;;;20.45;;
51224;SDS011;37298;42.688;23.312;2024-01-15T14:02:13;41.92;;;22.17;;
51224;SDS011;37298;42.688;23.312;2024-01-15T14:04:40;35.50;;;19.48;;
51224;SDS011;37298;42.688;23.312;2024-01-15T14:07:07;38.22;;;19.98;;
51224;SDS011;37298;42.688;23.312;2024-01-15T14:09:33;35.10;;;18.73;;